sensor_id;sensor_type;location;lat;lon;timestamp;P1;durP1;ratioP1;P2;durP2;ratioP2
45033;SDS011;30771;47.988;-4.186;2023-07-13T06:01:13;17.50;;;3.70;;
45033;SDS011;30771;47.988;-4.186;2023-07-13T06:03:39;15.52;;;4.57;;
45033;SDS011;30771;47.988;-4.186;2023-07-13T06:06:05;23.35;;;4.80;;
45033;SDS011;30771;47.988;-4.186;2023-07-13T06:08:32;17.88;;;3.67;;
45033;SDS011;30771;47.988;-4.186;2023-07-13T06:11:05;20.90;;;5.22;;
45033;SDS011;30771;47.988;-4.186;2023-07-13T06:13:39;10.02;;;4.47;;
45033;SDS011;30771;47.988;-4.186;2023-07-13T06:16:04;17.30;;;3.90;;
45033;SDS011;30771;47.988;-4.186;2023-07-13T06:18:33;15.40;;;4.00;;
45033;SDS011;30771;47.988;-4.186;2023-07-13T06:20:59;20.17;;;4.28;;
45033;SDS011;30771;47.988;-4.186;2023-07-13T06:23:25;15.13;;;4.05;;
45033;SDS011;30771;47.988;-4.186;2023-07-13T06:25:51;20.55;;;4.10;;
45033;SDS011;30771;47.988;-4.186;2023-07-13T06:28:16;21.13;;;4.68;;
45033;SDS011;30771;47.988;-4.186;2023-07-13T06:30:42;18.38;;;4.10;;
45033;SDS011;30771;47.988;-4.186;2023-07-13T06:33:07;18.00;;;3.97;;
45033;SDS011;30771;47.988;-4.186;2023-07-13T06:35:33;14.95;;;4.10;;
45033;SDS011;30771;47.988;-4.186;2023-07-13T06:37:58;22.75;;;4.00;;
45033;SDS011;30771;47.988;-4.186;2023-07-13T06:40:24;17.23;;;3.92;;
45033;SDS011;30771;47.988;-4.186;2023-07-13T06:42:50;14.73;;;3.80;;
45033;SDS011;30771;47.988;-4.186;2023-07-13T06:45:15;13.88;;;3.70;;
45033;SDS011;30771;47.988;-4.186;2023-07-13T06:47:41;18.30;;;4.05;;
45033;SDS011;30771;47.988;-4.186;2023-07-13T06:50:06;20.15;;;4.32;;
45033;SDS011;30771;47.988;-4.186;2023-07-13T06:52:32;14.23;;;4.40;;
45033;SDS011;30771;47.988;-4.186;2023-07-13T06:54:57;18.00;;;4.30;;
45033;SDS011;30771;47.988;-4.186;2023-07-13T06:57:23;17.27;;;3.92;;
45033;SDS011;30771;47.988;-4.186;2023-07-13T06:59:48;18.67;;;4.03;;
45033;SDS011;30771;47.988;-4.186;2023-07-13T07:02:14;16.27;;;3.47;;
45033;SDS011;30771;47.988;-4.186;2023-07-13T07:04:39;15.40;;;3.63;;
45033;SDS011;30771;47.988;-4.186;2023-07-13T07:07:04;16.27;;;4.07;;
45033;SDS011;30771;47.988;-4.186;2023-07-13T07:09:30;14.73;;;3.35;;
45033;SDS011;30771;47.988;-4.186;2023-07-13T07:11:56;12.63;;;3.28;;
45033;SDS011;30771;47.988;-4.186;2023-07-13T07:14:22;12.27;;;3.15;;
45033;SDS011;30771;47.988;-4.186;2023-07-13T07:16:47;18.60;;;3.83;;
45033;SDS011;30771;47.988;-4.186;2023-07-13T07:19:13;15.85;;;3.85;;
45033;SDS011;30771;47.988;-4.186;2023-07-13T07:21:38;19.35;;;3.83;;
45033;SDS011;30771;47.988;-4.186;2023-07-13T07:24:04;17.42;;;3.67;;
45033;SDS011;30771;47.988;-4.186;2023-07-13T07:26:30;18.42;;;4.13;;
45033;SDS011;30771;47.988;-4.186;2023-07-13T07:28:55;22.67;;;4.28;;
45033;SDS011;30771;47.988;-4.186;2023-07-13T07:31:21;15.80;;;3.78;;
45033;SDS011;30771;47.988;-4.186;2023-07-13T07:33:46;17.38;;;3.90;;
45033;SDS011;30771;47.988;-4.186;2023-07-13T07:36:12;13.70;;;3.90;;
45033;SDS011;30771;47.988;-4.186;2023-07-13T07:38:37;14.45;;;3.50;;
45033;SDS011;30771;47.988;-4.186;2023-07-13T07:41:04;17.08;;;3.60;;
45033;SDS011;30771;47.988;-4.186;2023-07-13T07:43:29;14.70;;;3.42;;
45033;SDS011;30771;47.988;-4.186;2023-07-13T07:45:56;15.93;;;3.95;;
45033;SDS011;30771;47.988;-4.186;2023-07-13T07:48:21;14.32;;;2.72;;
45033;SDS011;30771;47.988;-4.186;2023-07-13T07:50:47;17.15;;;2.80;;
45033;SDS011;30771;47.988;-4.186;2023-07-13T07:53:13;10.38;;;2.53;;
45033;SDS011;30771;47.988;-4.186;2023-07-13T07:55:39;12.20;;;2.58;;
45033;SDS011;30771;47.988;-4.186;2023-07-13T07:58:05;11.73;;;2.75;;
45033;SDS011;30771;47.988;-4.186;2023-07-13T08:00:31;12.85;;;2.67;;
45033;SDS011;30771;47.988;-4.186;2023-07-13T08:02:57;10.55;;;2.65;;
45033;SDS011;30771;47.988;-4.186;2023-07-13T08:05:24;11.50;;;3.05;;
45033;SDS011;30771;47.988;-4.186;2023-07-13T08:07:49;11.45;;;2.50;;
45033;SDS011;30771;47.988;-4.186;2023-07-13T08:10:15;15.27;;;2.33;;
45033;SDS011;30771;47.988;-4.186;2023-07-13T08:12:40;8.05;;;2.42;;
45033;SDS011;30771;47.988;-4.186;2023-07-13T08:15:08;8.98;;;2.40;;
45033;SDS011;30771;47.988;-4.186;2023-07-13T08:17:38;14.43;;;2.60;;
45033;SDS011;30771;47.988;-4.186;2023-07-13T08:22:29;12.60;;;2.75;;
45033;SDS011;30771;47.988;-4.186;2023-07-13T08:24:55;17.45;;;2.90;;
45033;SDS011;30771;47.988;-4.186;2023-07-13T08:27:21;8.50;;;2.67;;
45033;SDS011;30771;47.988;-4.186;2023-07-13T08:29:53;13.82;;;2.67;;
45033;SDS011;30771;47.988;-4.186;2023-07-13T08:32:19;9.05;;;2.30;;
45033;SDS011;30771;47.988;-4.186;2023-07-13T08:34:46;11.70;;;2.60;;
45033;SDS011;30771;47.988;-4.186;2023-07-13T08:37:11;9.52;;;2.75;;
45033;SDS011;30771;47.988;-4.186;2023-07-13T08:39:38;8.68;;;2.65;;
45033;SDS011;30771;47.988;-4.186;2023-07-13T08:42:09;8.70;;;2.75;;
45033;SDS011;30771;47.988;-4.186;2023-07-13T08:44:47;8.90;;;2.20;;
45033;SDS011;30771;47.988;-4.186;2023-07-13T08:47:28;9.70;;;2.17;;
45033;SDS011;30771;47.988;-4.186;2023-07-13T08:49:54;11.43;;;2.58;;
45033;SDS011;30771;47.988;-4.186;2023-07-13T08:52:28;11.90;;;2.58;;
45033;SDS011;30771;47.988;-4.186;2023-07-13T08:55:01;8.27;;;2.60;;
45033;SDS011;30771;47.988;-4.186;2023-07-13T08:57:38;10.32;;;2.50;;
45033;SDS011;30771;47.988;-4.186;2023-07-13T09:00:08;9.57;;;2.97;;
45033;SDS011;30771;47.988;-4.186;2023-07-13T09:02:52;12.07;;;2.80;;
45033;SDS011;30771;47.988;-4.186;2023-07-13T09:05:25;10.32;;;2.30;;
45033;SDS011;30771;47.988;-4.186;2023-07-13T09:10:49;9.00;;;2.35;;
45033;SDS011;30771;47.988;-4.186;2023-07-13T09:16:16;8.65;;;2.40;;
45033;SDS011;30771;47.988;-4.186;2023-07-13T09:18:46;6.75;;;2.45;;
45033;SDS011;30771;47.988;-4.186;2023-07-13T09:21:15;6.85;;;2.20;;
45033;SDS011;30771;47.988;-4.186;2023-07-13T09:23:43;9.43;;;2.20;;
45033;SDS011;30771;47.988;-4.186;2023-07-13T09:26:13;9.73;;;2.60;;
45033;SDS011;30771;47.988;-4.186;2023-07-13T09:28:48;9.45;;;2.45;;
45033;SDS011;30771;47.988;-4.186;2023-07-13T09:31:19;11.55;;;2.42;;
45033;SDS011;30771;47.988;-4.186;2023-07-13T09:33:49;13.45;;;2.70;;
45033;SDS011;30771;47.988;-4.186;2023-07-13T09:36:23;7.97;;;2.42;;
45033;SDS011;30771;47.988;-4.186;2023-07-13T09:39:12;7.43;;;2.42;;
45033;SDS011;30771;47.988;-4.186;2023-07-13T09:44:38;7.20;;;2.05;;
45033;SDS011;30771;47.988;-4.186;2023-07-13T09:47:15;8.77;;;2.35;;
45033;SDS011;30771;47.988;-4.186;2023-07-13T09:49:42;7.13;;;2.17;;
45033;SDS011;30771;47.988;-4.186;2023-07-13T09:52:12;10.30;;;2.58;;
45033;SDS011;30771;47.988;-4.186;2023-07-13T09:54:43;8.82;;;1.98;;
45033;SDS011;30771;47.988;-4.186;2023-07-13T09:57:15;10.35;;;2.40;;
45033;SDS011;30771;47.988;-4.186;2023-07-13T09:59:44;9.38;;;2.00;;
45033;SDS011;30771;47.988;-4.186;2023-07-13T10:05:00;7.25;;;2.00;;
45033;SDS011;30771;47.988;-4.186;2023-07-13T10:07:26;8.13;;;2.60;;
45033;SDS011;30771;47.988;-4.186;2023-07-13T10:09:52;7.97;;;2.00;;
45033;SDS011;30771;47.988;-4.186;2023-07-13T10:12:19;8.20;;;2.05;;
45033;SDS011;30771;47.988;-4.186;2023-07-13T10:14:45;7.05;;;2.17;;
45033;SDS011;30771;47.988;-4.186;2023-07-13T10:17:14;6.63;;;2.00;;
45033;SDS011;30771;47.988;-4.186;2023-07-13T10:19:41;7.32;;;1.88;;
45033;SDS011;30771;47.988;-4.186;2023-07-13T10:24:54;8.23;;;1.90;;
45033;SDS011;30771;47.988;-4.186;2023-07-13T10:27:23;7.10;;;2.10;;
45033;SDS011;30771;47.988;-4.186;2023-07-13T10:32:24;8.80;;;2.30;;
45033;SDS011;30771;47.988;-4.186;2023-07-13T10:34:50;6.88;;;2.00;;
45033;SDS011;30771;47.988;-4.186;2023-07-13T10:37:27;7.47;;;2.00;;
45033;SDS011;30771;47.988;-4.186;2023-07-13T10:39:56;5.85;;;1.98;;
45033;SDS011;30771;47.988;-4.186;2023-07-13T10:42:44;5.50;;;1.90;;
45033;SDS011;30771;47.988;-4.186;2023-07-13T10:45:18;6.38;;;2.20;;
45033;SDS011;30771;47.988;-4.186;2023-07-13T10:47:46;5.07;;;1.63;;
45033;SDS011;30771;47.988;-4.186;2023-07-13T10:50:17;4.78;;;1.52;;
45033;SDS011;30771;47.988;-4.186;2023-07-13T10:52:50;5.93;;;1.85;;
45033;SDS011;30771;47.988;-4.186;2023-07-13T10:55:40;6.63;;;1.67;;
45033;SDS011;30771;47.988;-4.186;2023-07-13T10:58:21;6.35;;;1.58;;
45033;SDS011;30771;47.988;-4.186;2023-07-13T11:03:24;5.78;;;1.52;;
45033;SDS011;30771;47.988;-4.186;2023-07-13T11:06:04;4.90;;;1.40;;
45033;SDS011;30771;47.988;-4.186;2023-07-13T11:08:50;5.57;;;1.50;;
45033;SDS011;30771;47.988;-4.186;2023-07-13T11:18:50;6.00;;;1.48;;
45033;SDS011;30771;47.988;-4.186;2023-07-13T11:21:19;3.40;;;1.30;;
45033;SDS011;30771;47.988;-4.186;2023-07-13T11:24:14;5.97;;;1.63;;
45033;SDS011;30771;47.988;-4.186;2023-07-13T11:26:41;5.47;;;1.42;;
45033;SDS011;30771;47.988;-4.186;2023-07-13T11:31:40;4.10;;;1.20;;
45033;SDS011;30771;47.988;-4.186;2023-07-13T11:34:12;2.72;;;1.30;;
45033;SDS011;30771;47.988;-4.186;2023-07-13T11:36:39;4.70;;;1.30;;
45033;SDS011;30771;47.988;-4.186;2023-07-13T11:42:08;4.95;;;1.52;;
45033;SDS011;30771;47.988;-4.186;2023-07-13T11:44:41;2.63;;;1.30;;
45033;SDS011;30771;47.988;-4.186;2023-07-13T11:47:10;4.63;;;1.20;;
45033;SDS011;30771;47.988;-4.186;2023-07-13T11:49:43;3.78;;;1.30;;
45033;SDS011;30771;47.988;-4.186;2023-07-13T11:52:14;5.75;;;1.50;;
45033;SDS011;30771;47.988;-4.186;2023-07-13T11:54:49;4.65;;;1.40;;
45033;SDS011;30771;47.988;-4.186;2023-07-13T11:59:51;4.57;;;1.35;;
45033;SDS011;30771;47.988;-4.186;2023-07-13T12:04:57;5.47;;;1.33;;
45033;SDS011;30771;47.988;-4.186;2023-07-13T12:07:27;3.97;;;1.53;;
45033;SDS011;30771;47.988;-4.186;2023-07-13T12:09:59;4.80;;;1.35;;
45033;SDS011;30771;47.988;-4.186;2023-07-13T12:12:28;3.00;;;1.30;;
45033;SDS011;30771;47.988;-4.186;2023-07-13T12:14:55;6.03;;;1.70;;
45033;SDS011;30771;47.988;-4.186;2023-07-13T12:17:22;3.13;;;1.20;;
45033;SDS011;30771;47.988;-4.186;2023-07-13T12:19:49;4.20;;;1.67;;
45033;SDS011;30771;47.988;-4.186;2023-07-13T12:22:17;3.42;;;1.30;;
45033;SDS011;30771;47.988;-4.186;2023-07-13T12:24:44;3.72;;;1.30;;
45033;SDS011;30771;47.988;-4.186;2023-07-13T12:27:18;2.55;;;1.23;;
45033;SDS011;30771;47.988;-4.186;2023-07-13T12:29:52;2.25;;;1.00;;
45033;SDS011;30771;47.988;-4.186;2023-07-13T12:32:30;5.13;;;1.30;;
45033;SDS011;30771;47.988;-4.186;2023-07-13T12:35:15;4.88;;;1.40;;
45033;SDS011;30771;47.988;-4.186;2023-07-13T12:37:44;3.03;;;1.33;;
45033;SDS011;30771;47.988;-4.186;2023-07-13T12:40:54;2.78;;;1.30;;
45033;SDS011;30771;47.988;-4.186;2023-07-13T12:43:01;9.80;;;1.48;;
45033;SDS011;30771;47.988;-4.186;2023-07-13T12:45:32;3.80;;;1.40;;
45033;SDS011;30771;47.988;-4.186;2023-07-13T12:48:02;5.30;;;1.50;;
45033;SDS011;30771;47.988;-4.186;2023-07-13T12:50:34;3.72;;;1.30;;
45033;SDS011;30771;47.988;-4.186;2023-07-13T12:53:03;2.50;;;1.35;;
45033;SDS011;30771;47.988;-4.186;2023-07-13T12:55:39;3.33;;;1.48;;
45033;SDS011;30771;47.988;-4.186;2023-07-13T12:58:09;4.38;;;1.33;;
45033;SDS011;30771;47.988;-4.186;2023-07-13T13:00:47;4.60;;;1.30;;
45033;SDS011;30771;47.988;-4.186;2023-07-13T13:05:46;5.03;;;1.35;;
45033;SDS011;30771;47.988;-4.186;2023-07-13T13:08:11;4.35;;;1.70;;
45033;SDS011;30771;47.988;-4.186;2023-07-13T13:10:37;3.80;;;1.60;;
45033;SDS011;30771;47.988;-4.186;2023-07-13T13:13:02;4.53;;;1.80;;
45033;SDS011;30771;47.988;-4.186;2023-07-13T13:15:28;4.25;;;1.77;;
45033;SDS011;30771;47.988;-4.186;2023-07-13T13:17:54;6.35;;;1.80;;
45033;SDS011;30771;47.988;-4.186;2023-07-13T13:20:21;5.18;;;1.73;;
45033;SDS011;30771;47.988;-4.186;2023-07-13T13:22:47;4.78;;;2.08;;
45033;SDS011;30771;47.988;-4.186;2023-07-13T13:25:13;4.05;;;1.70;;
45033;SDS011;30771;47.988;-4.186;2023-07-13T13:27:43;6.75;;;2.13;;
45033;SDS011;30771;47.988;-4.186;2023-07-13T13:30:13;6.50;;;1.95;;
45033;SDS011;30771;47.988;-4.186;2023-07-13T13:32:41;6.65;;;2.00;;
45033;SDS011;30771;47.988;-4.186;2023-07-13T13:35:15;6.70;;;1.83;;
45033;SDS011;30771;47.988;-4.186;2023-07-13T13:37:42;5.95;;;1.95;;
45033;SDS011;30771;47.988;-4.186;2023-07-13T13:40:19;5.68;;;1.98;;
45033;SDS011;30771;47.988;-4.186;2023-07-13T13:42:47;6.05;;;1.90;;
45033;SDS011;30771;47.988;-4.186;2023-07-13T13:45:12;4.28;;;1.60;;
45033;SDS011;30771;47.988;-4.186;2023-07-13T13:47:38;6.13;;;1.80;;
45033;SDS011;30771;47.988;-4.186;2023-07-13T13:50:15;7.85;;;2.28;;
45033;SDS011;30771;47.988;-4.186;2023-07-13T13:52:43;8.23;;;2.28;;
45033;SDS011;30771;47.988;-4.186;2023-07-13T13:55:27;4.93;;;2.10;;
45033;SDS011;30771;47.988;-4.186;2023-07-13T13:57:52;3.95;;;1.85;;
45033;SDS011;30771;47.988;-4.186;2023-07-13T14:00:19;4.70;;;1.80;;
45033;SDS011;30771;47.988;-4.186;2023-07-13T14:02:47;5.57;;;1.73;;
45033;SDS011;30771;47.988;-4.186;2023-07-13T14:05:16;4.45;;;1.88;;
45033;SDS011;30771;47.988;-4.186;2023-07-13T14:07:47;3.53;;;1.80;;
45033;SDS011;30771;47.988;-4.186;2023-07-13T14:10:13;5.68;;;1.88;;
45033;SDS011;30771;47.988;-4.186;2023-07-13T14:12:44;4.88;;;1.85;;
45033;SDS011;30771;47.988;-4.186;2023-07-13T14:15:20;4.32;;;1.90;;
45033;SDS011;30771;47.988;-4.186;2023-07-13T14:17:52;5.25;;;1.70;;
45033;SDS011;30771;47.988;-4.186;2023-07-13T14:20:18;6.22;;;1.80;;
45033;SDS011;30771;47.988;-4.186;2023-07-13T14:22:47;4.18;;;1.67;;
45033;SDS011;30771;47.988;-4.186;2023-07-13T14:25:14;3.63;;;1.80;;
45033;SDS011;30771;47.988;-4.186;2023-07-13T14:27:40;4.93;;;1.85;;
45033;SDS011;30771;47.988;-4.186;2023-07-13T14:30:14;4.18;;;2.10;;
45033;SDS011;30771;47.988;-4.186;2023-07-13T14:32:41;4.35;;;1.60;;
45033;SDS011;30771;47.988;-4.186;2023-07-13T14:35:10;3.70;;;1.65;;
45033;SDS011;30771;47.988;-4.186;2023-07-13T14:37:37;3.10;;;1.60;;
45033;SDS011;30771;47.988;-4.186;2023-07-13T14:40:13;5.53;;;1.90;;
45033;SDS011;30771;47.988;-4.186;2023-07-13T14:42:40;3.05;;;1.67;;
45033;SDS011;30771;47.988;-4.186;2023-07-13T14:45:05;5.47;;;1.95;;
45033;SDS011;30771;47.988;-4.186;2023-07-13T14:47:37;4.70;;;1.60;;
45033;SDS011;30771;47.988;-4.186;2023-07-13T14:50:03;3.92;;;1.80;;
45033;SDS011;30771;47.988;-4.186;2023-07-13T14:52:30;4.40;;;1.63;;
45033;SDS011;30771;47.988;-4.186;2023-07-13T14:54:55;2.65;;;1.55;;
45033;SDS011;30771;47.988;-4.186;2023-07-13T14:57:21;3.03;;;1.50;;
45033;SDS011;30771;47.988;-4.186;2023-07-13T14:59:47;3.22;;;1.88;;
45033;SDS011;30771;47.988;-4.186;2023-07-13T15:02:17;4.78;;;1.80;;
45033;SDS011;30771;47.988;-4.186;2023-07-13T15:04:50;4.03;;;1.75;;
45033;SDS011;30771;47.988;-4.186;2023-07-13T15:07:15;4.63;;;1.58;;
45033;SDS011;30771;47.988;-4.186;2023-07-13T15:09:43;4.40;;;1.40;;
45033;SDS011;30771;47.988;-4.186;2023-07-13T15:12:08;3.70;;;1.60;;
45033;SDS011;30771;47.988;-4.186;2023-07-13T15:14:34;3.85;;;1.83;;
45033;SDS011;30771;47.988;-4.186;2023-07-13T15:16:59;5.88;;;2.00;;
45033;SDS011;30771;47.988;-4.186;2023-07-13T15:19:25;4.20;;;1.70;;
45033;SDS011;30771;47.988;-4.186;2023-07-13T15:21:51;3.72;;;1.95;;
45033;SDS011;30771;47.988;-4.186;2023-07-13T15:24:19;2.33;;;1.60;;
45033;SDS011;30771;47.988;-4.186;2023-07-13T15:26:46;3.80;;;1.70;;
45033;SDS011;30771;47.988;-4.186;2023-07-13T15:29:13;3.75;;;1.55;;
45033;SDS011;30771;47.988;-4.186;2023-07-13T15:31:40;5.55;;;1.65;;
45033;SDS011;30771;47.988;-4.186;2023-07-13T15:34:13;3.17;;;1.58;;
45033;SDS011;30771;47.988;-4.186;2023-07-13T15:36:41;4.32;;;1.75;;
45033;SDS011;30771;47.988;-4.186;2023-07-13T15:39:13;6.55;;;1.83;;
45033;SDS011;30771;47.988;-4.186;2023-07-13T15:41:41;3.13;;;1.60;;
45033;SDS011;30771;47.988;-4.186;2023-07-13T15:44:19;4.13;;;1.70;;
45033;SDS011;30771;47.988;-4.186;2023-07-13T15:49:21;4.28;;;1.90;;
45033;SDS011;30771;47.988;-4.186;2023-07-13T15:51:47;4.82;;;1.58;;
45033;SDS011;30771;47.988;-4.186;2023-07-13T15:54:14;6.10;;;1.80;;
45033;SDS011;30771;47.988;-4.186;2023-07-13T15:56:41;4.63;;;1.60;;
45033;SDS011;30771;47.988;-4.186;2023-07-13T15:59:08;4.10;;;1.70;;
45033;SDS011;30771;47.988;-4.186;2023-07-13T16:01:37;5.35;;;1.90;;
45033;SDS011;30771;47.988;-4.186;2023-07-13T16:04:03;3.45;;;1.60;;
45033;SDS011;30771;47.988;-4.186;2023-07-13T16:06:30;4.30;;;1.58;;
45033;SDS011;30771;47.988;-4.186;2023-07-13T16:08:58;3.75;;;1.52;;
45033;SDS011;30771;47.988;-4.186;2023-07-13T16:11:29;3.78;;;1.60;;
45033;SDS011;30771;47.988;-4.186;2023-07-13T16:13:58;4.50;;;1.70;;
45033;SDS011;30771;47.988;-4.186;2023-07-13T16:16:28;4.05;;;1.80;;
45033;SDS011;30771;47.988;-4.186;2023-07-13T16:18:56;2.65;;;1.40;;
45033;SDS011;30771;47.988;-4.186;2023-07-13T16:21:30;5.68;;;1.70;;
45033;SDS011;30771;47.988;-4.186;2023-07-13T16:24:00;3.88;;;1.70;;
45033;SDS011;30771;47.988;-4.186;2023-07-13T16:26:30;2.83;;;1.55;;
45033;SDS011;30771;47.988;-4.186;2023-07-13T16:29:25;3.45;;;1.92;;
45033;SDS011;30771;47.988;-4.186;2023-07-13T16:31:58;5.75;;;1.80;;
45033;SDS011;30771;47.988;-4.186;2023-07-13T16:34:33;5.97;;;1.92;;
45033;SDS011;30771;47.988;-4.186;2023-07-13T16:37:00;4.40;;;1.53;;
45033;SDS011;30771;47.988;-4.186;2023-07-13T16:39:27;4.28;;;1.90;;
45033;SDS011;30771;47.988;-4.186;2023-07-13T16:41:55;6.28;;;2.17;;
45033;SDS011;30771;47.988;-4.186;2023-07-13T16:44:23;4.57;;;1.77;;
45033;SDS011;30771;47.988;-4.186;2023-07-13T16:46:51;6.07;;;1.70;;
45033;SDS011;30771;47.988;-4.186;2023-07-13T16:51:53;4.60;;;2.00;;
45033;SDS011;30771;47.988;-4.186;2023-07-13T16:54:20;3.50;;;1.58;;
45033;SDS011;30771;47.988;-4.186;2023-07-13T16:56:47;6.82;;;2.00;;
45033;SDS011;30771;47.988;-4.186;2023-07-13T16:59:15;6.90;;;2.20;;
45033;SDS011;30771;47.988;-4.186;2023-07-13T17:01:43;4.57;;;1.52;;
45033;SDS011;30771;47.988;-4.186;2023-07-13T17:04:10;6.80;;;1.63;;
45033;SDS011;30771;47.988;-4.186;2023-07-13T17:06:36;5.30;;;1.77;;
45033;SDS011;30771;47.988;-4.186;2023-07-13T17:09:04;6.72;;;1.73;;
45033;SDS011;30771;47.988;-4.186;2023-07-13T17:11:32;4.32;;;1.50;;
45033;SDS011;30771;47.988;-4.186;2023-07-13T17:13:58;4.38;;;1.75;;
45033;SDS011;30771;47.988;-4.186;2023-07-13T17:16:24;4.18;;;1.63;;
45033;SDS011;30771;47.988;-4.186;2023-07-13T17:18:50;4.65;;;1.52;;
45033;SDS011;30771;47.988;-4.186;2023-07-13T17:21:16;5.75;;;1.73;;
45033;SDS011;30771;47.988;-4.186;2023-07-13T17:23:43;3.72;;;1.77;;
45033;SDS011;30771;47.988;-4.186;2023-07-13T17:26:09;6.70;;;1.88;;
45033;SDS011;30771;47.988;-4.186;2023-07-13T17:28:35;5.07;;;1.58;;
45033;SDS011;30771;47.988;-4.186;2023-07-13T17:31:00;6.82;;;1.60;;
45033;SDS011;30771;47.988;-4.186;2023-07-13T17:33:34;7.35;;;1.70;;
45033;SDS011;30771;47.988;-4.186;2023-07-13T17:36:06;4.68;;;1.70;;
45033;SDS011;30771;47.988;-4.186;2023-07-13T17:38:41;7.57;;;1.85;;
45033;SDS011;30771;47.988;-4.186;2023-07-13T17:41:09;11.00;;;1.98;;
45033;SDS011;30771;47.988;-4.186;2023-07-13T17:43:37;8.40;;;1.90;;
45033;SDS011;30771;47.988;-4.186;2023-07-13T17:46:03;8.05;;;1.75;;
45033;SDS011;30771;47.988;-4.186;2023-07-13T17:48:41;5.95;;;1.70;;
45033;SDS011;30771;47.988;-4.186;2023-07-13T17:51:13;3.65;;;1.50;;
45033;SDS011;30771;47.988;-4.186;2023-07-13T17:53:40;5.70;;;1.75;;
45033;SDS011;30771;47.988;-4.186;2023-07-13T17:56:09;3.22;;;1.55;;
45033;SDS011;30771;47.988;-4.186;2023-07-13T17:58:35;3.97;;;1.52;;
45033;SDS011;30771;47.988;-4.186;2023-07-13T18:01:02;4.18;;;1.23;;
45033;SDS011;30771;47.988;-4.186;2023-07-13T18:03:28;6.55;;;1.60;;
45033;SDS011;30771;47.988;-4.186;2023-07-13T18:06:01;5.78;;;1.67;;
45033;SDS011;30771;47.988;-4.186;2023-07-13T18:08:31;5.40;;;1.45;;
45033;SDS011;30771;47.988;-4.186;2023-07-13T18:10:58;6.05;;;1.70;;
45033;SDS011;30771;47.988;-4.186;2023-07-13T18:13:25;4.38;;;1.70;;
45033;SDS011;30771;47.988;-4.186;2023-07-13T18:15:53;5.20;;;1.75;;
45033;SDS011;30771;47.988;-4.186;2023-07-13T18:18:20;5.97;;;1.63;;
45033;SDS011;30771;47.988;-4.186;2023-07-13T18:20:46;5.60;;;1.50;;
45033;SDS011;30771;47.988;-4.186;2023-07-13T18:23:16;5.43;;;1.65;;
45033;SDS011;30771;47.988;-4.186;2023-07-13T18:25:44;5.40;;;2.30;;
45033;SDS011;30771;47.988;-4.186;2023-07-13T18:28:11;7.80;;;2.42;;
45033;SDS011;30771;47.988;-4.186;2023-07-13T18:30:40;6.72;;;1.63;;
45033;SDS011;30771;47.988;-4.186;2023-07-13T18:33:09;5.22;;;1.88;;
45033;SDS011;30771;47.988;-4.186;2023-07-13T18:35:59;7.30;;;1.90;;
45033;SDS011;30771;47.988;-4.186;2023-07-13T18:38:29;5.65;;;1.50;;
45033;SDS011;30771;47.988;-4.186;2023-07-13T18:40:56;8.45;;;1.70;;
45033;SDS011;30771;47.988;-4.186;2023-07-13T18:43:22;8.10;;;2.42;;
45033;SDS011;30771;47.988;-4.186;2023-07-13T18:45:51;5.43;;;1.92;;
45033;SDS011;30771;47.988;-4.186;2023-07-13T18:48:20;8.30;;;2.00;;
45033;SDS011;30771;47.988;-4.186;2023-07-13T18:50:48;6.40;;;2.10;;
45033;SDS011;30771;47.988;-4.186;2023-07-13T18:53:15;5.80;;;1.88;;
45033;SDS011;30771;47.988;-4.186;2023-07-13T18:55:41;6.75;;;1.60;;
45033;SDS011;30771;47.988;-4.186;2023-07-13T18:58:09;5.85;;;1.80;;
45033;SDS011;30771;47.988;-4.186;2023-07-13T19:00:38;5.93;;;2.10;;
45033;SDS011;30771;47.988;-4.186;2023-07-13T19:03:24;6.97;;;2.13;;
45033;SDS011;30771;47.988;-4.186;2023-07-13T19:05:54;8.60;;;1.98;;
45033;SDS011;30771;47.988;-4.186;2023-07-13T19:08:21;5.93;;;2.17;;
45033;SDS011;30771;47.988;-4.186;2023-07-13T19:10:49;8.05;;;2.20;;
45033;SDS011;30771;47.988;-4.186;2023-07-13T19:13:20;6.60;;;2.40;;
45033;SDS011;30771;47.988;-4.186;2023-07-13T19:15:47;8.05;;;2.53;;
45033;SDS011;30771;47.988;-4.186;2023-07-13T19:18:16;8.30;;;2.72;;
45033;SDS011;30771;47.988;-4.186;2023-07-13T19:20:47;5.88;;;1.92;;
45033;SDS011;30771;47.988;-4.186;2023-07-13T19:25:57;5.07;;;1.83;;
45033;SDS011;30771;47.988;-4.186;2023-07-13T19:28:46;5.78;;;2.00;;
45033;SDS011;30771;47.988;-4.186;2023-07-13T19:31:24;10.68;;;5.72;;
45033;SDS011;30771;47.988;-4.186;2023-07-13T19:33:52;15.68;;;6.20;;
45033;SDS011;30771;47.988;-4.186;2023-07-13T19:36:19;8.18;;;5.15;;
45033;SDS011;30771;47.988;-4.186;2023-07-13T19:38:47;7.38;;;3.67;;
45033;SDS011;30771;47.988;-4.186;2023-07-13T19:41:15;7.57;;;2.33;;
45033;SDS011;30771;47.988;-4.186;2023-07-13T19:43:43;11.07;;;4.15;;
45033;SDS011;30771;47.988;-4.186;2023-07-13T19:46:14;17.48;;;9.82;;
45033;SDS011;30771;47.988;-4.186;2023-07-13T19:48:43;12.88;;;7.10;;
45033;SDS011;30771;47.988;-4.186;2023-07-13T19:51:09;34.00;;;21.73;;
45033;SDS011;30771;47.988;-4.186;2023-07-13T19:53:41;32.80;;;20.13;;
45033;SDS011;30771;47.988;-4.186;2023-07-13T19:56:08;23.13;;;14.45;;
45033;SDS011;30771;47.988;-4.186;2023-07-13T19:58:34;25.35;;;15.05;;
45033;SDS011;30771;47.988;-4.186;2023-07-13T20:00:59;9.15;;;4.78;;
45033;SDS011;30771;47.988;-4.186;2023-07-13T20:03:25;34.50;;;19.92;;
45033;SDS011;30771;47.988;-4.186;2023-07-13T20:05:50;40.25;;;24.88;;
45033;SDS011;30771;47.988;-4.186;2023-07-13T20:08:17;9.95;;;3.65;;
45033;SDS011;30771;47.988;-4.186;2023-07-13T20:10:47;7.18;;;3.65;;
45033;SDS011;30771;47.988;-4.186;2023-07-13T20:13:14;9.13;;;3.10;;
45033;SDS011;30771;47.988;-4.186;2023-07-13T20:15:45;7.18;;;2.28;;
45033;SDS011;30771;47.988;-4.186;2023-07-13T20:18:13;7.00;;;2.63;;
45033;SDS011;30771;47.988;-4.186;2023-07-13T20:20:40;6.35;;;2.28;;
45033;SDS011;30771;47.988;-4.186;2023-07-13T20:23:17;8.00;;;2.15;;
45033;SDS011;30771;47.988;-4.186;2023-07-13T20:25:44;5.57;;;2.35;;
45033;SDS011;30771;47.988;-4.186;2023-07-13T20:28:14;6.55;;;2.28;;
45033;SDS011;30771;47.988;-4.186;2023-07-13T20:30:41;6.57;;;2.33;;
45033;SDS011;30771;47.988;-4.186;2023-07-13T20:33:18;10.40;;;2.50;;
45033;SDS011;30771;47.988;-4.186;2023-07-13T20:35:47;7.80;;;2.42;;
45033;SDS011;30771;47.988;-4.186;2023-07-13T20:38:14;9.40;;;2.45;;
45033;SDS011;30771;47.988;-4.186;2023-07-13T20:40:42;9.50;;;2.40;;
45033;SDS011;30771;47.988;-4.186;2023-07-13T20:43:08;5.30;;;2.40;;
45033;SDS011;30771;47.988;-4.186;2023-07-13T20:45:34;14.07;;;3.05;;
45033;SDS011;30771;47.988;-4.186;2023-07-13T20:50:52;8.50;;;2.50;;
45033;SDS011;30771;47.988;-4.186;2023-07-13T20:53:20;10.95;;;2.88;;
45033;SDS011;30771;47.988;-4.186;2023-07-13T20:55:45;10.10;;;2.70;;
45033;SDS011;30771;47.988;-4.186;2023-07-13T20:58:12;9.07;;;2.58;;
45033;SDS011;30771;47.988;-4.186;2023-07-13T21:00:37;6.05;;;2.17;;
45033;SDS011;30771;47.988;-4.186;2023-07-13T21:03:06;11.52;;;2.90;;
45033;SDS011;30771;47.988;-4.186;2023-07-13T21:05:38;8.10;;;3.30;;
45033;SDS011;30771;47.988;-4.186;2023-07-13T21:08:10;10.18;;;3.05;;
45033;SDS011;30771;47.988;-4.186;2023-07-13T21:10:43;6.70;;;2.67;;
45033;SDS011;30771;47.988;-4.186;2023-07-13T21:13:10;9.43;;;2.70;;
45033;SDS011;30771;47.988;-4.186;2023-07-13T21:15:36;6.20;;;2.30;;
45033;SDS011;30771;47.988;-4.186;2023-07-13T21:18:04;6.25;;;2.33;;
45033;SDS011;30771;47.988;-4.186;2023-07-13T21:20:37;6.03;;;2.40;;
45033;SDS011;30771;47.988;-4.186;2023-07-13T21:23:18;8.60;;;3.05;;
45033;SDS011;30771;47.988;-4.186;2023-07-13T21:25:50;10.27;;;2.97;;
45033;SDS011;30771;47.988;-4.186;2023-07-13T21:28:16;8.48;;;2.83;;
45033;SDS011;30771;47.988;-4.186;2023-07-13T21:30:41;9.02;;;2.53;;
45033;SDS011;30771;47.988;-4.186;2023-07-13T21:33:08;10.02;;;2.92;;
45033;SDS011;30771;47.988;-4.186;2023-07-13T21:35:37;9.88;;;2.80;;